Time;durP1;ratioP1;P1;durP2;ratioP2;P2;SDS_P1;SDS_P2;PMS_P1;PMS_P2;Temp;Humidity;BMP_temperature;BMP_pressure;BME280_temperature;BME280_humidity;BME280_pressure;Samples;Min_cycle;Max_cycle;Signal;HPM_P1;HPM_P2
2023/05/15 00:00:11;;;;;;;52.13;30.00;;;11.70;99.90;;;;;;4978586;28;89616;-35
2023/05/15 00:02:38;;;;;;;49.80;29.80;;;11.70;99.90;;;;;;4980096;28;89768;-32
2023/05/15 00:05:05;;;;;;;47.08;31.10;;;11.60;99.90;;;;;;4979030;28;90162;-33
2023/05/15 00:07:31;;;;;;;49.22;29.77;;;11.60;99.90;;;;;;4978599;28;91983;-35
2023/05/15 00:09:56;;;;;;;70.28;29.85;;;11.60;99.90;;;;;;4979960;28;91131;-34
2023/05/15 00:12:22;;;;;;;38.17;26.85;;;11.70;99.90;;;;;;4990713;28;88386;-35
2023/05/15 00:14:47;;;;;;;45.88;28.70;;;11.70;99.90;;;;;;4984977;28;89621;-33
2023/05/15 00:17:13;;;;;;;44.67;26.98;;;11.70;99.90;;;;;;4998490;28;90358;-33
2023/05/15 00:19:38;;;;;;;66.30;28.90;;;11.70;99.90;;;;;;4997697;28;89525;-34
2023/05/15 00:22:04;;;;;;;42.15;28.67;;;11.70;99.90;;;;;;4998627;28;88997;-32
2023/05/15 00:24:30;;;;;;;38.45;27.38;;;11.70;99.90;;;;;;4998023;28;90395;-32
2023/05/15 00:26:56;;;;;;;52.45;30.50;;;11.70;99.90;;;;;;4998898;28;89533;-33
2023/05/15 00:29:22;;;;;;;39.58;29.08;;;11.70;99.90;;;;;;4997316;28;89540;-33
2023/05/15 00:31:48;;;;;;;45.03;27.85;;;11.70;99.90;;;;;;4998183;28;89655;-34
2023/05/15 00:34:13;;;;;;;51.50;31.60;;;11.70;99.90;;;;;;4979360;28;89244;-32
2023/05/15 00:36:39;;;;;;;44.97;30.40;;;11.70;99.90;;;;;;4978440;28;89725;-36
2023/05/15 00:39:05;;;;;;;51.13;31.35;;;11.70;99.90;;;;;;4983429;28;89770;-33
2023/05/15 00:41:32;;;;;;;54.85;32.13;;;11.70;99.90;;;;;;4995417;28;88435;-34
2023/05/15 00:43:59;;;;;;;49.60;31.67;;;11.70;99.90;;;;;;4994441;28;89757;-32
2023/05/15 00:46:28;;;;;;;49.47;33.08;;;11.70;99.90;;;;;;4998011;28;88607;-32
2023/05/15 00:48:56;;;;;;;49.35;31.67;;;11.70;99.90;;;;;;4997232;28;89535;-32
2023/05/15 00:51:22;;;;;;;44.90;29.23;;;11.70;99.90;;;;;;4998271;28;89895;-32
2023/05/15 00:53:50;;;;;;;47.72;29.88;;;11.70;99.90;;;;;;4994758;28;91284;-35
2023/05/15 00:56:16;;;;;;;51.95;32.72;;;11.80;99.90;;;;;;4996784;28;90885;-36
2023/05/15 00:58:44;;;;;;;46.65;30.05;;;11.80;99.90;;;;;;4996831;28;90711;-31
2023/05/15 01:01:10;;;;;;;51.75;29.98;;;11.80;99.90;;;;;;4997796;28;88321;-31
2023/05/15 01:03:36;;;;;;;51.65;33.28;;;11.80;99.90;;;;;;4997039;28;89391;-36
2023/05/15 01:06:02;;;;;;;48.80;31.90;;;11.80;99.90;;;;;;4998273;28;89122;-32
2023/05/15 01:08:27;;;;;;;50.30;33.47;;;11.70;99.90;;;;;;4996867;28;89925;-32
2023/05/15 01:10:55;;;;;;;48.50;29.67;;;11.70;99.90;;;;;;4997982;28;89275;-33
2023/05/15 01:13:22;;;;;;;45.42;28.50;;;11.70;99.90;;;;;;4995494;28;90321;-32
2023/05/15 01:15:48;;;;;;;42.67;29.20;;;11.70;99.90;;;;;;4997013;28;89427;-35
2023/05/15 01:18:14;;;;;;;46.88;33.03;;;11.70;99.90;;;;;;4997397;28;89609;-35
2023/05/15 01:21:05;;;;;;;47.60;30.45;;;11.60;99.90;;;;;;4997738;28;89308;-36
2023/05/15 01:23:36;;;;;;;43.13;31.10;;;11.60;99.90;;;;;;4978324;28;90124;-32
2023/05/15 01:26:11;;;;;;;52.60;31.55;;;11.70;99.90;;;;;;4977763;28;89899;-32
2023/05/15 01:28:42;;;;;;;42.67;30.35;;;11.60;99.90;;;;;;4989845;28;89683;-33
2023/05/15 01:31:15;;;;;;;45.30;30.05;;;11.60;99.90;;;;;;4991359;28;88812;-32
2023/05/15 01:33:45;;;;;;;47.42;30.20;;;11.60;99.90;;;;;;4978480;28;89040;-34
2023/05/15 01:36:37;;;;;;;48.67;27.17;;;11.60;99.90;;;;;;4977725;28;90096;-32
2023/05/15 01:39:04;;;;;;;44.42;28.35;;;11.50;99.90;;;;;;4991396;28;90235;-34
2023/05/15 01:41:42;;;;;;;46.97;32.05;;;11.50;99.90;;;;;;4978022;28;88716;-31
2023/05/15 01:44:16;;;;;;;43.53;29.45;;;11.50;99.90;;;;;;4977791;28;89116;-33
2023/05/15 01:46:44;;;;;;;69.72;30.92;;;11.50;99.90;;;;;;4977675;28;91847;-31
2023/05/15 01:49:12;;;;;;;50.38;32.75;;;11.50;99.90;;;;;;4991043;28;91127;-34
2023/05/15 01:51:39;;;;;;;45.60;28.80;;;11.50;99.90;;;;;;4983129;28;89481;-31
2023/05/15 01:54:07;;;;;;;41.05;28.75;;;11.50;99.90;;;;;;4980027;28;90036;-36
2023/05/15 01:56:34;;;;;;;53.97;32.25;;;11.40;99.90;;;;;;4983001;28;89765;-32
2023/05/15 01:59:03;;;;;;;45.35;31.52;;;11.30;99.90;;;;;;4980571;28;89761;-32
2023/05/15 02:01:31;;;;;;;;;;;11.30;99.90;;;;;;4983618;28;88386;-33
2023/05/15 02:03:57;;;;;;;40.63;25.90;;;11.30;99.90;;;;;;4982677;28;90682;-33
2023/05/15 02:06:23;;;;;;;50.33;27.63;;;11.30;99.90;;;;;;4985859;28;89671;-34
2023/05/15 02:08:50;;;;;;;42.17;28.35;;;11.30;99.90;;;;;;4983686;28;89786;-34
2023/05/15 02:11:15;;;;;;;87.97;32.42;;;11.20;99.90;;;;;;4984838;28;89427;-32
2023/05/15 02:13:42;;;;;;;43.40;28.45;;;11.30;99.90;;;;;;4983336;28;89751;-35
2023/05/15 02:16:07;;;;;;;45.17;28.88;;;11.30;99.90;;;;;;4996818;28;91140;-32
2023/05/15 02:18:33;;;;;;;63.53;31.35;;;11.30;99.90;;;;;;4983669;28;89231;-33
2023/05/15 02:21:01;;;;;;;44.08;26.13;;;11.20;99.90;;;;;;4996874;28;88493;-35
2023/05/15 02:23:27;;;;;;;60.90;23.92;;;11.20;99.90;;;;;;4980419;28;91271;-36
2023/05/15 02:26:21;;;;;;;44.30;29.65;;;11.10;99.90;;;;;;4983165;28;89612;-32
2023/05/15 02:28:57;;;;;;;42.72;27.25;;;11.20;99.90;;;;;;4987889;28;87916;-36
2023/05/15 02:31:40;;;;;;;43.90;27.00;;;11.10;99.90;;;;;;4981116;28;89890;-33
2023/05/15 02:34:33;;;;;;;99.82;31.25;;;11.20;99.90;;;;;;4980665;28;89908;-35
2023/05/15 02:37:02;;;;;;;55.33;31.15;;;11.10;99.90;;;;;;4979597;28;90849;-34
2023/05/15 02:39:28;;;;;;;56.28;32.33;;;11.10;99.90;;;;;;4988391;28;90557;-34
2023/05/15 02:41:55;;;;;;;71.55;32.30;;;11.10;99.90;;;;;;4987785;28;89200;-33
2023/05/15 02:44:21;;;;;;;52.92;29.38;;;11.00;99.90;;;;;;4990893;28;89850;-32
2023/05/15 02:46:47;;;;;;;61.58;31.38;;;11.00;99.90;;;;;;4982709;28;90158;-33
2023/05/15 02:49:13;;;;;;;39.80;26.40;;;10.90;99.90;;;;;;5000175;28;89009;-33
2023/05/15 02:51:39;;;;;;;68.97;28.60;;;10.90;99.90;;;;;;4986719;28;88328;-35
2023/05/15 02:54:05;;;;;;;74.95;30.15;;;10.90;99.90;;;;;;4986811;28;90060;-35
2023/05/15 02:56:31;;;;;;;144.45;34.45;;;10.90;99.90;;;;;;4999505;28;90962;-35
2023/05/15 02:58:56;;;;;;;74.07;33.38;;;10.90;99.90;;;;;;4997664;28;90289;-31
2023/05/15 03:01:22;;;;;;;41.85;27.00;;;10.80;99.90;;;;;;4998560;28;89405;-34
2023/05/15 03:03:48;;;;;;;86.68;33.90;;;10.80;99.90;;;;;;4999483;28;89742;-34
2023/05/15 03:06:13;;;;;;;137.95;34.83;;;10.90;99.90;;;;;;4998712;28;89343;-36
2023/05/15 03:08:39;;;;;;;48.22;30.02;;;10.80;99.90;;;;;;4998741;28;90814;-33
2023/05/15 03:11:05;;;;;;;43.03;28.33;;;10.80;99.90;;;;;;4998619;28;90366;-36
2023/05/15 03:13:30;;;;;;;51.85;30.17;;;10.80;99.90;;;;;;4998827;28;89125;-32
2023/05/15 03:15:56;;;;;;;46.28;29.27;;;10.80;99.90;;;;;;4996498;28;89550;-32
2023/05/15 03:18:21;;;;;;;34.88;25.88;;;10.70;99.90;;;;;;5000166;28;89080;-32
2023/05/15 03:20:48;;;;;;;52.40;29.75;;;10.80;99.90;;;;;;4998667;28;90031;-31
2023/05/15 03:23:14;;;;;;;86.72;32.13;;;10.80;99.90;;;;;;4979534;28;90160;-34
2023/05/15 03:25:39;;;;;;;60.85;27.17;;;10.70;99.90;;;;;;4993049;28;91419;-33
2023/05/15 03:28:05;;;;;;;234.95;44.90;;;10.60;99.90;;;;;;4999648;28;90721;-32
2023/05/15 03:30:31;;;;;;;41.92;27.55;;;10.50;99.90;;;;;;4998713;28;89752;-34
2023/05/15 03:32:56;;;;;;;42.53;22.85;;;10.50;99.90;;;;;;4979854;28;90410;-34
2023/05/15 03:35:22;;;;;;;245.27;42.80;;;10.50;99.90;;;;;;4979067;28;91454;-31
2023/05/15 03:37:48;;;;;;;116.45;35.40;;;10.60;99.90;;;;;;4987840;28;90303;-33
2023/05/15 03:40:13;;;;;;;100.97;33.55;;;10.60;99.90;;;;;;4984796;28;88828;-36
2023/05/15 03:42:39;;;;;;;65.32;30.50;;;10.60;99.90;;;;;;4980197;28;90424;-35
2023/05/15 03:45:05;;;;;;;35.58;25.45;;;10.50;99.90;;;;;;4979308;28;90201;-32
2023/05/15 03:47:30;;;;;;;45.88;30.25;;;10.40;99.90;;;;;;4985720;28;89710;-34
2023/05/15 03:49:56;;;;;;;39.78;25.90;;;10.40;99.90;;;;;;4986691;28;90232;-35
2023/05/15 03:52:22;;;;;;;101.43;33.47;;;10.50;99.90;;;;;;4997722;28;90362;-34
2023/05/15 03:54:48;;;;;;;59.58;27.67;;;10.40;99.90;;;;;;4997611;28;90681;-33
2023/05/15 03:57:14;;;;;;;45.17;28.15;;;10.40;99.90;;;;;;4998009;28;89538;-32
2023/05/15 03:59:40;;;;;;;50.60;30.63;;;10.40;99.90;;;;;;4999410;28;89080;-31
2023/05/15 04:02:05;;;;;;;75.38;29.00;;;10.40;99.90;;;;;;4978708;28;90245;-36
2023/05/15 04:04:31;;;;;;;57.38;29.42;;;10.50;99.90;;;;;;4979372;28;90396;-36
2023/05/15 04:06:57;;;;;;;105.70;32.22;;;10.40;99.90;;;;;;4992494;28;91772;-33
2023/05/15 04:09:22;;;;;;;39.15;25.98;;;10.30;99.90;;;;;;4991843;28;89109;-33
2023/05/15 04:11:48;;;;;;;40.33;25.73;;;10.40;99.90;;;;;;4988768;28;90088;-36
2023/05/15 04:14:13;;;;;;;51.88;27.20;;;10.40;99.90;;;;;;5011698;22;90699;-34
2023/05/15 04:16:39;;;;;;;39.00;25.73;;;10.40;99.90;;;;;;4959578;28;89588;-34
2023/05/15 04:19:05;;;;;;;47.45;26.95;;;10.40;99.90;;;;;;4958694;28;88432;-33
2023/05/15 04:21:30;;;;;;;39.08;29.25;;;10.40;99.90;;;;;;4977966;28;90222;-35
2023/05/15 04:23:56;;;;;;;41.08;28.20;;;10.40;99.90;;;;;;4966188;28;90899;-32
2023/05/15 04:26:21;;;;;;;56.00;28.27;;;10.40;99.90;;;;;;4958667;28;89742;-32
2023/05/15 04:28:47;;;;;;;90.25;28.52;;;10.50;99.90;;;;;;4984180;28;89171;-36
2023/05/15 04:31:13;;;;;;;84.53;32.78;;;10.40;99.90;;;;;;4958515;28;90188;-33
2023/05/15 04:33:38;;;;;;;130.57;35.58;;;10.40;99.90;;;;;;4983626;28;90663;-34
2023/05/15 04:36:06;;;;;;;134.07;34.83;;;10.30;99.90;;;;;;4990110;28;89694;-35
2023/05/15 04:38:32;;;;;;;40.33;26.92;;;10.20;99.90;;;;;;4988873;28;88096;-32
2023/05/15 04:40:57;;;;;;;40.97;26.25;;;10.20;99.90;;;;;;4989961;28;90338;-33
2023/05/15 04:43:23;;;;;;;42.42;28.25;;;10.30;99.90;;;;;;4976343;28;89866;-32
2023/05/15 04:45:48;;;;;;;44.45;27.75;;;10.30;99.90;;;;;;4976968;28;89158;-33
2023/05/15 04:48:14;;;;;;;37.97;27.92;;;10.30;99.90;;;;;;4990236;28;90042;-33
2023/05/15 04:50:40;;;;;;;49.20;25.65;;;10.40;99.90;;;;;;4984505;28;90128;-35
2023/05/15 04:53:05;;;;;;;45.53;28.48;;;10.30;99.90;;;;;;4986160;28;89811;-30
2023/05/15 04:55:31;;;;;;;51.70;28.67;;;10.40;99.90;;;;;;4970483;28;90807;-32
2023/05/15 04:57:56;;;;;;;39.00;25.90;;;10.30;99.90;;;;;;4998199;28;90580;-30
2023/05/15 05:00:22;;;;;;;43.55;24.98;;;10.40;99.90;;;;;;4964793;28;90880;-31
2023/05/15 05:02:48;;;;;;;38.45;25.90;;;10.40;99.90;;;;;;4965823;28;90869;-34
2023/05/15 05:05:13;;;;;;;51.28;25.48;;;10.40;99.90;;;;;;4976827;28;90517;-34
2023/05/15 05:07:39;;;;;;;37.78;23.65;;;10.30;99.90;;;;;;4977920;28;88818;-35
2023/05/15 05:10:06;;;;;;;34.97;23.85;;;10.40;99.90;;;;;;4994062;28;89786;-34
2023/05/15 05:12:31;;;;;;;43.13;26.45;;;10.40;99.90;;;;;;4984064;28;89577;-34
2023/05/15 05:14:57;;;;;;;32.42;21.70;;;10.40;99.90;;;;;;4989274;28;89741;-35
2023/05/15 05:17:23;;;;;;;34.08;23.67;;;10.40;99.90;;;;;;4976573;28;89820;-32
2023/05/15 05:19:48;;;;;;;34.75;22.00;;;10.40;99.90;;;;;;4987734;28;90362;-36
2023/05/15 05:22:14;;;;;;;28.55;21.75;;;10.30;99.90;;;;;;4977698;28;89356;-31
2023/05/15 05:24:39;;;;;;;30.70;20.52;;;10.30;99.90;;;;;;4996478;28;90318;-34
2023/05/15 05:27:05;;;;;;;31.42;21.17;;;10.30;99.90;;;;;;4997342;28;89335;-31
2023/05/15 05:29:31;;;;;;;34.75;24.77;;;10.30;99.90;;;;;;4977040;28;89118;-33
2023/05/15 05:31:57;;;;;;;27.63;19.42;;;10.40;99.90;;;;;;4964932;28;88888;-34
2023/05/15 05:34:22;;;;;;;37.50;24.05;;;10.40;99.90;;;;;;4959561;28;89851;-32
2023/05/15 05:36:49;;;;;;;38.00;23.05;;;10.30;99.90;;;;;;4970448;28;88012;-32
2023/05/15 05:39:15;;;;;;;46.17;25.58;;;10.30;99.90;;;;;;4979345;28;89852;-32
2023/05/15 05:41:41;;;;;;;36.80;23.80;;;10.30;99.90;;;;;;4977964;28;89749;-32
2023/05/15 05:44:07;;;;;;;42.95;24.25;;;10.30;99.90;;;;;;4990817;28;89535;-36
2023/05/15 05:46:33;;;;;;;33.20;23.25;;;10.30;99.90;;;;;;4979449;28;89148;-31
2023/05/15 05:48:58;;;;;;;34.72;25.40;;;10.40;99.90;;;;;;5000809;28;89970;-32
2023/05/15 05:51:24;;;;;;;39.42;25.13;;;10.30;99.90;;;;;;4988723;28;90519;-35
2023/05/15 05:53:49;;;;;;;35.92;24.40;;;10.30;99.90;;;;;;4978423;28;90768;-35
2023/05/15 05:56:15;;;;;;;39.45;24.10;;;10.30;99.90;;;;;;4987974;28;89364;-35
2023/05/15 05:58:41;;;;;;;42.28;25.88;;;10.40;99.90;;;;;;4991780;28;90385;-35
2023/05/15 06:01:07;;;;;;;30.13;23.08;;;10.50;99.90;;;;;;4983879;28;90226;-35
2023/05/15 06:03:33;;;;;;;35.95;24.35;;;10.50;99.90;;;;;;4992391;28;89968;-32
2023/05/15 06:05:59;;;;;;;34.03;21.25;;;10.40;99.90;;;;;;4993904;28;88779;-36
2023/05/15 06:08:25;;;;;;;33.45;24.33;;;10.50;99.90;;;;;;4993011;28;90875;-32
2023/05/15 06:10:51;;;;;;;38.28;22.45;;;10.40;99.90;;;;;;4983080;28;90736;-33
2023/05/15 06:13:17;;;;;;;41.20;26.38;;;10.40;99.90;;;;;;4969062;28;88956;-32
2023/05/15 06:15:44;;;;;;;32.28;22.63;;;10.30;99.90;;;;;;4960298;28;88091;-31
2023/05/15 06:18:10;;;;;;;41.28;25.50;;;10.30;99.90;;;;;;4990567;28;89246;-31
2023/05/15 06:20:35;;;;;;;37.53;23.45;;;10.30;99.90;;;;;;4978920;28;89827;-34
2023/05/15 06:23:01;;;;;;;37.40;23.35;;;10.30;99.90;;;;;;4960356;28;90303;-35
2023/05/15 06:25:26;;;;;;;36.95;22.70;;;10.20;99.90;;;;;;4970740;28;89207;-32
2023/05/15 06:27:52;;;;;;;32.90;21.40;;;10.30;99.90;;;;;;4990469;28;90388;-34
2023/05/15 06:30:18;;;;;;;37.85;23.20;;;10.30;99.90;;;;;;4990387;28;89385;-36
2023/05/15 06:32:43;;;;;;;38.20;25.15;;;10.30;99.90;;;;;;4978509;28;89746;-34
2023/05/15 06:35:09;;;;;;;32.47;20.77;;;10.30;99.90;;;;;;4978429;28;89712;-33
2023/05/15 06:37:35;;;;;;;33.22;20.40;;;10.30;99.90;;;;;;4977433;28;90197;-33
2023/05/15 06:40:01;;;;;;;37.08;23.55;;;10.40;99.90;;;;;;4978064;28;90108;-35
2023/05/15 06:42:27;;;;;;;30.75;22.60;;;10.40;99.90;;;;;;4983651;28;91326;-32
2023/05/15 06:44:53;;;;;;;42.22;24.40;;;10.40;99.90;;;;;;4997032;28;89033;-31
2023/05/15 06:47:18;;;;;;;34.22;23.45;;;10.40;99.90;;;;;;4981845;28;90353;-32
2023/05/15 06:49:44;;;;;;;34.13;23.27;;;10.50;99.90;;;;;;4997265;28;90586;-34
2023/05/15 06:52:10;;;;;;;34.63;22.25;;;10.50;99.90;;;;;;4966330;28;89025;-31
2023/05/15 06:54:35;;;;;;;32.80;22.95;;;10.60;99.90;;;;;;4988417;28;88695;-35
2023/05/15 06:57:01;;;;;;;31.58;22.95;;;10.80;99.90;;;;;;4962494;28;90280;-32
2023/05/15 06:59:26;;;;;;;30.17;20.42;;;10.90;99.90;;;;;;4980020;28;90933;-31
2023/05/15 07:01:52;;;;;;;24.73;19.70;;;11.00;99.90;;;;;;4984043;28;89851;-34
2023/05/15 07:04:18;;;;;;;36.15;22.60;;;11.20;99.90;;;;;;5002811;28;89021;-31
2023/05/15 07:06:43;;;;;;;34.10;21.83;;;11.50;99.90;;;;;;4991636;28;90522;-34
2023/05/15 07:09:09;;;;;;;34.35;22.52;;;11.70;99.90;;;;;;4977686;28;89702;-34
2023/05/15 07:11:37;;;;;;;32.72;21.88;;;11.80;99.90;;;;;;4995345;28;90045;-33
2023/05/15 07:14:04;;;;;;;34.00;20.13;;;11.90;99.90;;;;;;4984433;28;89509;-33
2023/05/15 07:16:30;;;;;;;31.15;20.77;;;12.00;99.90;;;;;;4982980;28;90473;-31
2023/05/15 07:18:55;;;;;;;39.03;22.75;;;12.40;99.90;;;;;;4984269;28;91414;-34
2023/05/15 07:21:21;;;;;;;30.08;20.75;;;12.60;99.90;;;;;;4989080;28;89887;-31
2023/05/15 07:23:46;;;;;;;26.95;19.27;;;12.80;99.90;;;;;;4992190;28;88145;-33
2023/05/15 07:26:13;;;;;;;34.72;21.73;;;13.20;99.90;;;;;;4991331;28;90421;-33
2023/05/15 07:28:39;;;;;;;29.08;20.35;;;13.10;99.90;;;;;;4968243;28;90349;-34
2023/05/15 07:31:05;;;;;;;33.33;19.08;;;13.50;99.90;;;;;;4969203;28;90337;-30
2023/05/15 07:33:31;;;;;;;22.73;17.40;;;13.60;99.90;;;;;;4977620;28;90451;-34
2023/05/15 07:35:57;;;;;;;30.17;18.90;;;13.80;99.90;;;;;;4991115;28;90741;-32
2023/05/15 07:38:22;;;;;;;23.33;18.08;;;14.00;99.90;;;;;;4964492;28;89637;-32
2023/05/15 07:40:48;;;;;;;30.23;17.50;;;13.90;99.90;;;;;;4958108;28;89094;-36
2023/05/15 07:43:14;;;;;;;25.75;19.10;;;14.30;99.90;;;;;;4957186;28;89441;-31
2023/05/15 07:45:39;;;;;;;27.17;19.38;;;14.50;99.90;;;;;;4964795;28;91342;-32
2023/05/15 07:48:18;;;;;;;24.65;17.42;;;14.70;99.90;;;;;;4985681;28;90901;-35
2023/05/15 07:50:45;;;;;;;24.15;18.30;;;14.80;99.90;;;;;;4963762;28;90176;-35
2023/05/15 07:53:12;;;;;;;22.05;17.20;;;15.10;99.90;;;;;;4974733;28;88934;-33
2023/05/15 07:55:38;;;;;;;24.63;19.25;;;15.50;99.90;;;;;;4972093;28;88749;-31
2023/05/15 07:58:03;;;;;;;22.83;17.15;;;15.50;99.90;;;;;;4968956;28;89349;-32
2023/05/15 08:00:29;;;;;;;23.58;15.68;;;15.60;99.90;;;;;;4962899;28;89144;-36
2023/05/15 08:02:55;;;;;;;19.90;16.20;;;15.80;99.90;;;;;;4962448;28;89151;-34
2023/05/15 08:05:21;;;;;;;21.05;15.35;;;15.60;99.90;;;;;;4963033;28;89662;-33
2023/05/15 08:07:47;;;;;;;19.88;15.30;;;16.00;99.90;;;;;;4965441;28;90064;-33
2023/05/15 08:10:12;;;;;;;23.20;17.30;;;16.00;99.90;;;;;;4970056;28;89522;-32
2023/05/15 08:12:44;;;;;;;17.67;13.43;;;16.30;99.90;;;;;;4968782;28;87805;-32
2023/05/15 08:15:11;;;;;;;19.80;14.18;;;16.50;99.90;;;;;;4962445;28;90075;-31
2023/05/15 08:17:36;;;;;;;16.70;14.23;;;16.70;99.90;;;;;;4967423;28;89654;-33
2023/05/15 08:20:03;;;;;;;18.02;14.18;;;16.70;99.90;;;;;;4974751;28;90486;-32
2023/05/15 08:22:29;;;;;;;19.13;16.20;;;16.80;99.90;;;;;;4975551;28;88840;-34
2023/05/15 08:24:55;;;;;;;17.58;13.90;;;17.20;99.90;;;;;;4976838;28;90106;-34
2023/05/15 08:27:20;;;;;;;18.88;15.00;;;17.50;99.90;;;;;;4962745;28;90483;-32
2023/05/15 08:29:46;;;;;;;21.83;16.25;;;17.50;99.90;;;;;;4976426;28;90039;-34
2023/05/15 08:32:12;;;;;;;18.58;16.15;;;17.50;99.90;;;;;;4975420;28;89172;-35
2023/05/15 08:34:37;;;;;;;17.30;13.95;;;17.90;99.90;;;;;;4984494;28;89854;-33
2023/05/15 08:37:03;;;;;;;21.88;16.63;;;17.90;99.90;;;;;;4995608;28;91294;-33
2023/05/15 08:39:29;;;;;;;22.00;16.02;;;18.10;99.90;;;;;;4986744;28;90473;-32
2023/05/15 08:42:23;;;;;;;19.15;14.90;;;17.90;99.90;;;;;;4990952;28;89382;-31
2023/05/15 08:44:49;;;;;;;18.20;14.80;;;18.00;99.90;;;;;;4982372;28;89992;-33
2023/05/15 08:47:15;;;;;;;18.25;14.45;;;17.70;99.90;;;;;;4977162;28;91910;-34
2023/05/15 08:50:03;;;;;;;17.42;14.40;;;18.00;99.90;;;;;;4971823;28;90263;-33
2023/05/15 08:52:30;;;;;;;16.10;13.90;;;17.80;99.90;;;;;;4968103;28;88539;-32
2023/05/15 08:54:57;;;;;;;16.35;13.90;;;17.80;99.90;;;;;;4966902;28;90513;-34
2023/05/15 08:57:23;;;;;;;17.52;15.75;;;17.80;99.90;;;;;;4970696;28;90234;-35
2023/05/15 08:59:51;;;;;;;18.30;14.40;;;18.00;99.90;;;;;;4962996;28;89575;-33
2023/05/15 09:02:17;;;;;;;;;;;18.30;99.90;;;;;;4970074;28;89830;-33
2023/05/15 09:04:43;;;;;;;15.98;13.77;;;18.40;99.90;;;;;;4972871;28;90296;-35
2023/05/15 09:07:10;;;;;;;15.65;13.07;;;18.70;99.90;;;;;;4969175;28;91282;-31
2023/05/15 09:09:36;;;;;;;23.38;18.80;;;18.50;99.90;;;;;;4963598;28;90074;-33
2023/05/15 09:12:02;;;;;;;17.10;15.32;;;18.30;99.90;;;;;;4973617;28;89406;-34
2023/05/15 09:14:28;;;;;;;16.58;14.85;;;18.10;99.90;;;;;;4961699;28;89672;-32
2023/05/15 09:16:54;;;;;;;16.65;13.50;;;18.00;99.90;;;;;;4968217;28;89344;-34
2023/05/15 09:19:21;;;;;;;20.38;14.13;;;18.40;99.90;;;;;;4961867;28;89840;-35
2023/05/15 09:21:47;;;;;;;14.93;13.35;;;18.50;99.90;;;;;;4985291;28;89041;-32
2023/05/15 09:24:20;;;;;;;15.77;12.68;;;18.80;99.90;;;;;;4981128;28;88876;-32
2023/05/15 09:26:58;;;;;;;16.80;12.77;;;19.20;99.90;;;;;;4986606;28;92566;-33
2023/05/15 09:29:26;;;;;;;14.38;12.88;;;19.40;99.90;;;;;;4988084;28;89260;-34
2023/05/15 09:31:52;;;;;;;17.98;16.05;;;19.60;99.90;;;;;;4962928;28;88945;-35
2023/05/15 09:34:18;;;;;;;15.27;13.88;;;19.30;88.00;;;;;;4956597;28;90220;-33
2023/05/15 09:36:43;;;;;;;15.77;14.13;;;19.10;99.90;;;;;;4956153;28;89394;-34
2023/05/15 09:39:09;;;;;;;15.73;13.80;;;19.10;91.70;;;;;;4956814;28;89594;-32
2023/05/15 09:41:41;;;;;;;15.75;14.02;;;19.30;97.90;;;;;;4964954;28;89666;-32
2023/05/15 09:44:26;;;;;;;15.27;13.70;;;19.00;91.20;;;;;;4962275;28;89569;-37
2023/05/15 09:46:52;;;;;;;17.92;12.75;;;19.20;94.70;;;;;;4990258;28;89249;-33
2023/05/15 09:49:20;;;;;;;16.95;12.80;;;19.40;91.10;;;;;;4981653;28;89762;-32
2023/05/15 09:51:47;;;;;;;16.30;12.65;;;19.50;96.20;;;;;;4973171;28;90048;-36
2023/05/15 09:54:17;;;;;;;15.02;13.43;;;19.80;92.50;;;;;;4967596;28;90730;-35
2023/05/15 09:56:44;;;;;;;14.73;12.68;;;19.20;89.10;;;;;;4955509;28;90236;-33
2023/05/15 09:59:23;;;;;;;15.83;12.60;;;19.80;96.30;;;;;;4955823;28;90470;-35
2023/05/15 10:01:50;;;;;;;13.50;11.07;;;20.00;92.10;;;;;;4970184;28;89261;-31
2023/05/15 10:04:16;;;;;;;10.20;9.20;;;20.10;87.90;;;;;;4974616;28;90342;-34
2023/05/15 10:06:45;;;;;;;22.27;12.90;;;20.20;97.70;;;;;;4975440;28;89912;-36
2023/05/15 10:09:12;;;;;;;11.23;10.13;;;20.10;81.70;;;;;;4975435;28;89193;-34
2023/05/15 10:11:42;;;;;;;17.08;10.73;;;20.20;86.00;;;;;;4975608;28;90684;-34
2023/05/15 10:14:10;;;;;;;12.05;10.15;;;20.30;81.50;;;;;;4990666;28;89846;-36
2023/05/15 10:16:36;;;;;;;;;;;20.30;80.20;;;;;;4990315;28;90034;-34
2023/05/15 10:19:10;;;;;;;10.55;9.35;;;20.60;80.20;;;;;;4976990;28;89476;-34
2023/05/15 10:21:40;;;;;;;10.98;9.95;;;20.60;80.20;;;;;;4974324;28;89678;-33
2023/05/15 10:24:07;;;;;;;11.10;8.93;;;20.60;77.70;;;;;;4986699;28;89038;-36
2023/05/15 10:26:41;;;;;;;14.32;11.98;;;20.40;78.20;;;;;;4978573;28;90096;-32
2023/05/15 10:29:20;;;;;;;13.00;9.75;;;20.10;73.40;;;;;;4978349;28;89493;-33
2023/05/15 10:31:47;;;;;;;9.55;8.45;;;20.00;73.60;;;;;;4971258;28;89734;-31
2023/05/15 10:34:13;;;;;;;8.85;8.05;;;19.90;76.30;;;;;;4978130;28;90426;-32
2023/05/15 10:36:40;;;;;;;7.55;6.85;;;19.90;75.60;;;;;;4988204;28;89788;-32
2023/05/15 10:39:07;;;;;;;9.20;8.40;;;20.10;78.00;;;;;;4996377;28;89441;-36
2023/05/15 10:41:35;;;;;;;16.73;9.80;;;20.00;76.40;;;;;;4987403;28;89031;-34
2023/05/15 10:44:01;;;;;;;11.63;10.52;;;20.20;77.70;;;;;;4989263;28;90003;-33
2023/05/15 10:46:30;;;;;;;12.52;10.77;;;20.10;80.50;;;;;;4978037;28;90711;-36
2023/05/15 10:48:57;;;;;;;11.70;10.57;;;20.10;73.90;;;;;;4994375;28;90267;-33
2023/05/15 10:51:28;;;;;;;15.43;10.48;;;20.10;74.30;;;;;;4985122;28;89133;-32
2023/05/15 10:53:55;;;;;;;9.93;8.70;;;19.90;73.40;;;;;;4982412;28;91147;-32
2023/05/15 10:56:26;;;;;;;9.77;8.60;;;19.90;75.10;;;;;;4984920;28;90028;-36
2023/05/15 10:58:53;;;;;;;8.48;7.68;;;20.10;75.60;;;;;;4995475;28;89507;-33
2023/05/15 11:01:33;;;;;;;11.60;8.43;;;20.20;74.70;;;;;;4971303;28;88857;-33
2023/05/15 11:04:12;;;;;;;9.45;8.43;;;20.30;72.60;;;;;;4960818;28;89313;-35
2023/05/15 11:06:43;;;;;;;12.70;9.32;;;20.30;76.80;;;;;;4963309;28;90482;-35
2023/05/15 11:09:21;;;;;;;11.88;9.20;;;20.30;75.40;;;;;;4962913;28;89992;-31
2023/05/15 11:11:59;;;;;;;11.70;10.23;;;20.60;76.90;;;;;;4967164;28;89293;-34
2023/05/15 11:14:26;;;;;;;8.68;7.88;;;20.50;73.10;;;;;;4963869;28;90505;-33
2023/05/15 11:16:51;;;;;;;9.55;8.65;;;20.30;74.50;;;;;;4976951;28;89453;-35
2023/05/15 11:19:39;;;;;;;9.45;8.50;;;20.20;73.20;;;;;;4964193;28;89428;-34
2023/05/15 11:22:07;;;;;;;11.43;10.32;;;20.10;75.80;;;;;;4974190;28;90306;-35
2023/05/15 11:24:56;;;;;;;9.68;8.68;;;20.00;75.70;;;;;;4965879;28;90254;-35
2023/05/15 11:27:28;;;;;;;10.30;9.10;;;19.90;77.20;;;;;;4961771;28;89265;-34
2023/05/15 11:30:03;;;;;;;10.77;9.75;;;19.80;83.40;;;;;;4968360;28;89521;-35
2023/05/15 11:32:53;;;;;;;9.07;8.18;;;20.00;82.80;;;;;;4968933;28;89319;-35
2023/05/15 11:35:41;;;;;;;9.73;8.75;;;20.10;83.70;;;;;;4962916;28;91478;-33
2023/05/15 11:38:09;;;;;;;12.98;9.02;;;20.00;74.60;;;;;;4975210;28;90245;-34
2023/05/15 11:40:51;;;;;;;9.40;8.50;;;20.00;74.90;;;;;;4965436;28;90459;-31
2023/05/15 11:43:37;;;;;;;10.30;9.23;;;19.90;79.00;;;;;;4972537;28;88362;-31
2023/05/15 11:46:04;;;;;;;8.10;7.28;;;20.20;75.40;;;;;;4966014;28;90354;-35
2023/05/15 11:48:31;;;;;;;9.13;8.20;;;20.30;74.80;;;;;;4978003;28;89983;-32
2023/05/15 11:50:59;;;;;;;12.90;9.02;;;20.20;75.10;;;;;;4999298;28;89825;-36
2023/05/15 11:53:25;;;;;;;11.43;8.90;;;20.20;75.80;;;;;;4985936;28;88560;-34
2023/05/15 11:55:53;;;;;;;9.93;7.93;;;20.30;76.10;;;;;;4991090;28;90168;-31
2023/05/15 11:58:20;;;;;;;14.43;10.60;;;20.50;75.40;;;;;;4992488;28;89396;-32
2023/05/15 12:00:48;;;;;;;10.73;9.85;;;20.40;75.90;;;;;;4989479;28;89699;-31
2023/05/15 12:03:25;;;;;;;12.47;10.87;;;20.20;77.00;;;;;;4981382;28;89426;-33
2023/05/15 12:05:52;;;;;;;11.48;10.30;;;20.00;76.10;;;;;;4997974;28;89809;-33
2023/05/15 12:08:22;;;;;;;11.27;8.90;;;20.20;77.40;;;;;;4991169;28;89309;-37
2023/05/15 12:10:48;;;;;;;12.05;10.40;;;20.30;80.90;;;;;;4990078;28;89547;-35
2023/05/15 12:13:16;;;;;;;14.32;12.07;;;20.40;78.90;;;;;;4990749;28;88996;-33
2023/05/15 12:15:44;;;;;;;10.95;9.85;;;20.50;78.00;;;;;;4978807;28;89452;-30
2023/05/15 12:18:10;;;;;;;11.38;10.18;;;20.40;81.90;;;;;;4984146;28;89680;-34
2023/05/15 12:20:38;;;;;;;12.68;10.30;;;20.50;79.60;;;;;;4983779;28;88572;-34
2023/05/15 12:23:05;;;;;;;10.98;9.77;;;20.40;78.20;;;;;;4959484;28;88440;-35
2023/05/15 12:25:33;;;;;;;10.38;9.38;;;20.20;76.80;;;;;;4960918;28;90225;-31
2023/05/15 12:28:00;;;;;;;11.15;10.15;;;20.30;74.80;;;;;;4959801;28;92320;-33
2023/05/15 12:30:27;;;;;;;9.60;8.65;;;20.10;75.10;;;;;;4958945;28;90422;-32
2023/05/15 12:32:53;;;;;;;9.77;8.93;;;20.10;77.70;;;;;;4960004;28;89222;-33